createdAt,value
2022-09-27T00:01:29.469Z,99055.08
2022-09-27T00:04:02.814Z,99056.90
2022-09-27T00:06:40.614Z,99058.84
2022-09-27T00:09:15.106Z,99054.73
2022-09-27T00:11:49.198Z,99058.23
2022-09-27T00:14:22.648Z,99054.38
2022-09-27T00:16:55.936Z,99052.67
2022-09-27T00:19:29.826Z,99046.75
2022-09-27T00:22:04.012Z,99046.36
2022-09-27T00:24:37.727Z,99040.44
2022-09-27T00:27:11.103Z,99037.55
2022-09-27T00:29:44.261Z,99034.11
2022-09-27T00:32:18.245Z,99039.82
2022-09-27T00:34:51.685Z,99040.38
2022-09-27T00:37:26.377Z,99037.86
2022-09-27T00:40:00.252Z,99030.13
2022-09-27T00:42:34.020Z,99023.56
2022-09-27T00:45:18.250Z,99021.00
2022-09-27T00:47:56.258Z,99019.93
2022-09-27T00:50:34.646Z,99021.40
2022-09-27T00:53:14.570Z,99014.27
2022-09-27T00:55:52.364Z,99014.23
2022-09-27T00:58:30.813Z,99011.55
2022-09-27T01:01:07.724Z,99005.14
2022-09-27T01:03:47.538Z,99003.64
2022-09-27T01:06:23.011Z,99001.81
2022-09-27T01:08:56.375Z,99005.23
2022-09-27T01:11:43.426Z,99007.36
2022-09-27T01:14:39.071Z,99006.45
2022-09-27T01:17:23.317Z,99009.42
2022-09-27T01:20:42.362Z,99008.98
2022-09-27T01:23:44.356Z,99008.13
2022-09-27T01:26:37.037Z,99001.57
2022-09-27T01:29:16.303Z,99002.08
2022-09-27T01:31:57.046Z,99002.23
2022-09-27T01:34:37.219Z,99006.23
2022-09-27T01:37:18.025Z,99002.60
2022-09-27T01:40:01.189Z,99000.86
2022-09-27T01:42:43.253Z,98997.58
2022-09-27T01:45:24.659Z,98996.38
2022-09-27T01:48:11.951Z,98992.09
2022-09-27T01:51:05.921Z,98992.31
2022-09-27T01:53:42.825Z,98990.01
2022-09-27T01:56:37.466Z,98990.13
2022-09-27T01:59:25.938Z,98986.48
2022-09-27T02:02:10.232Z,98981.73
2022-09-27T02:05:07.213Z,98983.48
2022-09-27T02:07:46.620Z,98979.85
2022-09-27T02:10:24.584Z,98979.66
2022-09-27T02:13:07.925Z,98980.69
2022-09-27T02:15:47.890Z,98975.46
2022-09-27T02:18:38.852Z,98970.86
2022-09-27T02:21:16.647Z,98967.81
2022-09-27T02:23:57.113Z,98968.27
2022-09-27T02:26:35.095Z,98964.16
2022-09-27T02:29:12.577Z,98964.20
2022-09-27T02:31:54.265Z,98959.30
2022-09-27T02:34:30.975Z,98962.03
2022-09-27T02:37:04.454Z,98958.27
2022-09-27T02:39:38.365Z,98965.96
2022-09-27T02:42:14.239Z,98963.84
2022-09-27T02:44:49.191Z,98957.54
2022-09-27T02:47:41.194Z,98957.03
2022-09-27T02:50:33.762Z,98956.88
2022-09-27T02:53:46.070Z,98953.48
2022-09-27T02:56:45.252Z,98953.58
2022-09-27T02:59:51.685Z,98952.42
2022-09-27T03:02:39.267Z,98951.48
2022-09-27T03:05:40.410Z,98948.71
2022-09-27T03:08:15.404Z,98950.94
2022-09-27T03:10:49.927Z,98953.11
2022-09-27T03:13:23.712Z,98948.06
2022-09-27T03:16:01.362Z,98948.18
2022-09-27T03:18:55.617Z,98955.73
2022-09-27T03:21:48.208Z,98952.27
2022-09-27T03:24:31.945Z,98954.23
2022-09-27T03:27:05.925Z,98955.25
2022-09-27T03:29:39.590Z,98948.44
2022-09-27T03:32:14.175Z,98942.83
2022-09-27T03:35:08.650Z,98939.52
2022-09-27T03:37:42.926Z,98932.27
2022-09-27T03:40:17.749Z,98928.08
2022-09-27T03:42:51.732Z,98927.85
2022-09-27T03:45:25.832Z,98926.66
2022-09-27T03:47:59.275Z,98924.77
2022-09-27T03:50:32.897Z,98920.39
2022-09-27T03:53:06.412Z,98923.29
2022-09-27T03:55:40.208Z,98923.64
2022-09-27T03:58:13.674Z,98921.95
2022-09-27T04:00:49.403Z,98911.26
2022-09-27T04:03:23.156Z,98906.90
2022-09-27T04:06:18.337Z,98907.95
2022-09-27T04:08:51.758Z,98912.13
2022-09-27T04:11:29.654Z,98908.41
2022-09-27T04:14:05.571Z,98903.80
2022-09-27T04:16:42.107Z,98902.58
2022-09-27T04:19:33.043Z,98904.23
2022-09-27T04:22:15.863Z,98898.52
2022-09-27T04:24:52.661Z,98897.63
2022-09-27T04:27:32.386Z,98899.13
2022-09-27T04:30:06.714Z,98899.44
2022-09-27T04:33:12.751Z,98898.58
2022-09-27T04:36:03.966Z,98899.93
2022-09-27T04:38:37.819Z,98897.02
2022-09-27T04:41:13.036Z,98897.81
2022-09-27T04:43:46.693Z,98902.66
2022-09-27T04:46:20.010Z,98907.30
2022-09-27T04:48:53.470Z,98910.31
2022-09-27T04:51:27.378Z,98911.46
2022-09-27T04:54:00.978Z,98914.80
2022-09-27T04:56:38.815Z,98913.85
2022-09-27T04:59:12.417Z,98909.00
2022-09-27T05:01:47.384Z,98907.32
2022-09-27T05:04:40.865Z,98905.67
2022-09-27T05:07:14.591Z,98904.36
2022-09-27T05:09:50.933Z,98902.33
2022-09-27T05:12:32.700Z,98904.98
2022-09-27T05:15:10.700Z,98907.08
2022-09-27T05:17:44.358Z,98901.23
2022-09-27T05:20:47.098Z,98899.22
2022-09-27T05:23:29.433Z,98895.13
2022-09-27T05:26:07.274Z,98893.36
2022-09-27T05:28:43.447Z,98893.12
2022-09-27T05:31:17.288Z,98889.59
2022-09-27T05:33:51.578Z,98886.40
2022-09-27T05:36:39.099Z,98884.87
2022-09-27T05:39:12.648Z,98888.10
2022-09-27T05:41:47.051Z,98883.55
2022-09-27T05:44:20.673Z,98885.79
2022-09-27T05:47:05.239Z,98886.60
2022-09-27T05:49:41.926Z,98891.08
2022-09-27T05:52:16.829Z,98897.19
2022-09-27T05:54:52.829Z,98902.63
2022-09-27T05:57:26.454Z,98903.38
2022-09-27T06:00:06.026Z,98904.12
2022-09-27T06:02:45.256Z,98903.58
2022-09-27T06:05:41.984Z,98904.73
2022-09-27T06:08:45.757Z,98901.02
2022-09-27T06:11:22.675Z,98902.08
2022-09-27T06:13:56.985Z,98898.36
2022-09-27T06:16:31.271Z,98893.77
2022-09-27T06:19:07.055Z,98887.15
2022-09-27T06:21:40.534Z,98887.85
2022-09-27T06:24:14.098Z,98890.46
2022-09-27T06:26:47.843Z,98886.40
2022-09-27T06:29:36.131Z,98895.17
2022-09-27T06:32:11.932Z,98894.05
2022-09-27T06:34:55.488Z,98892.52
2022-09-27T06:37:30.451Z,98889.83
2022-09-27T06:40:04.449Z,98883.68
2022-09-27T06:42:58.885Z,98878.80
2022-09-27T06:45:52.754Z,98873.23
2022-09-27T06:48:40.178Z,98870.62
2022-09-27T06:51:23.240Z,98872.65
2022-09-27T06:53:57.040Z,98876.38
2022-09-27T06:56:32.732Z,98888.23
2022-09-27T06:59:24.767Z,98893.94
2022-09-27T07:02:21.669Z,98900.98
2022-09-27T07:05:24.505Z,98910.14
2022-09-27T07:08:27.599Z,98913.64
2022-09-27T07:11:06.764Z,98916.99
2022-09-27T07:13:43.259Z,98912.17
2022-09-27T07:16:19.972Z,98915.40
2022-09-27T07:18:53.952Z,98906.98
2022-09-27T07:21:27.776Z,98911.85
2022-09-27T07:24:01.723Z,98918.34
2022-09-27T07:26:35.636Z,98924.06
2022-09-27T07:29:11.419Z,98919.56
2022-09-27T07:31:45.521Z,98922.98
2022-09-27T07:34:19.801Z,98922.48
2022-09-27T07:36:55.324Z,98920.16
2022-09-27T07:39:29.134Z,98919.25
2022-09-27T07:42:02.627Z,98906.83
2022-09-27T07:44:36.076Z,98907.61
2022-09-27T07:47:29.138Z,98907.59
2022-09-27T07:50:14.941Z,98904.10
2022-09-27T07:53:13.194Z,98897.40
2022-09-27T07:55:58.737Z,98894.54
2022-09-27T07:58:34.494Z,98901.73
2022-09-27T08:01:11.784Z,98912.37
2022-09-27T08:03:48.355Z,98911.84
2022-09-27T08:06:25.493Z,98912.49
2022-09-27T08:08:59.968Z,98912.11
2022-09-27T08:11:35.858Z,98912.26
2022-09-27T08:14:11.037Z,98909.08
2022-09-27T08:16:46.465Z,98906.28
2022-09-27T08:19:45.461Z,98907.44
2022-09-27T08:22:43.974Z,98913.27
2022-09-27T08:25:34.059Z,98918.98
2022-09-27T08:28:15.300Z,98919.06
2022-09-27T08:31:02.981Z,98922.17
2022-09-27T08:33:41.241Z,98923.36
2022-09-27T08:36:18.283Z,98917.33
2022-09-27T08:39:00.845Z,98915.42
2022-09-27T08:41:52.447Z,98921.06
2022-09-27T08:44:36.767Z,98921.23
2022-09-27T08:47:20.398Z,98920.13
2022-09-27T08:49:58.974Z,98920.29
2022-09-27T08:52:38.874Z,98921.04
2022-09-27T08:55:27.382Z,98918.53
2022-09-27T08:58:03.033Z,98919.20
2022-09-27T09:00:36.795Z,98923.45
2022-09-27T09:03:21.206Z,98922.19
2022-09-27T09:06:09.383Z,98920.22
2022-09-27T09:08:53.535Z,98922.92
2022-09-27T09:11:53.846Z,98917.52
2022-09-27T09:14:48.730Z,98914.18
2022-09-27T09:17:38.208Z,98908.32
2022-09-27T09:20:37.002Z,98900.80
2022-09-27T09:23:36.313Z,98899.50
2022-09-27T09:26:17.731Z,98891.51
2022-09-27T09:29:03.354Z,98892.98
2022-09-27T09:31:42.806Z,98889.54
2022-09-27T09:34:24.113Z,98885.98
2022-09-27T09:37:04.437Z,98885.25
2022-09-27T09:39:42.465Z,98890.75
2022-09-27T09:42:31.733Z,98890.20
2022-09-27T09:45:08.581Z,98888.86
2022-09-27T09:47:47.339Z,98888.89
2022-09-27T09:50:21.015Z,98887.95
2022-09-27T09:53:00.708Z,98888.11
2022-09-27T09:55:38.509Z,98891.98
2022-09-27T09:58:22.471Z,98889.09
2022-09-27T10:01:18.714Z,98889.85
2022-09-27T10:03:53.072Z,98892.41
2022-09-27T10:06:28.406Z,98882.40
2022-09-27T10:09:03.169Z,98882.14
2022-09-27T10:11:48.485Z,98869.91
2022-09-27T10:14:35.039Z,98866.45
2022-09-27T10:17:20.975Z,98864.66
2022-09-27T10:19:55.130Z,98865.47
2022-09-27T10:22:34.489Z,98865.28
2022-09-27T10:25:14.563Z,98861.88
2022-09-27T10:27:54.668Z,98859.65
2022-09-27T10:30:33.353Z,98864.64
2022-09-27T10:33:20.163Z,98872.11
2022-09-27T10:36:01.328Z,98867.79
2022-09-27T10:38:38.229Z,98867.08
2022-09-27T10:41:29.275Z,98867.21
2022-09-27T10:44:26.660Z,98866.41
2022-09-27T10:47:26.645Z,98857.23
2022-09-27T10:50:38.660Z,98856.21
2022-09-27T10:53:25.109Z,98853.22
2022-09-27T10:56:05.791Z,98852.93
2022-09-27T10:58:40.532Z,98849.64
2022-09-27T11:01:18.014Z,98845.33
2022-09-27T11:04:25.456Z,98845.60
2022-09-27T11:07:14.062Z,98840.70
2022-09-27T11:09:55.108Z,98836.73
2022-09-27T11:12:30.966Z,98835.46
2022-09-27T11:15:07.850Z,98830.20
2022-09-27T11:17:55.044Z,98826.99
2022-09-27T11:20:38.484Z,98828.79
2022-09-27T11:23:43.454Z,98827.75
2022-09-27T11:26:35.525Z,98822.92
2022-09-27T11:29:24.672Z,98819.23
2022-09-27T11:32:48.325Z,98816.38
2022-09-27T11:35:42.483Z,98813.19
2022-09-27T11:38:51.084Z,98806.43
2022-09-27T11:41:33.706Z,98804.23
2022-09-27T11:44:29.493Z,98804.16
2022-09-27T11:47:16.031Z,98801.52
2022-09-27T11:50:18.914Z,98798.38
2022-09-27T11:53:09.454Z,98796.88
2022-09-27T11:55:54.814Z,98794.27
2022-09-27T11:58:37.507Z,98797.53
2022-09-27T12:01:28.140Z,98800.16
2022-09-27T12:04:32.140Z,98797.42
2022-09-27T12:07:13.725Z,98796.83
2022-09-27T12:09:54.352Z,98797.94
2022-09-27T12:12:31.592Z,98790.71
2022-09-27T12:15:08.852Z,98787.56
2022-09-27T12:17:44.849Z,98787.71
2022-09-27T12:20:24.819Z,98785.90
2022-09-27T12:23:03.290Z,98782.55
2022-09-27T12:26:00.977Z,98780.11
2022-09-27T12:28:43.846Z,98779.92
2022-09-27T12:31:30.860Z,98777.43
2022-09-27T12:34:19.786Z,98772.80
2022-09-27T12:37:00.666Z,98767.13
2022-09-27T12:39:46.341Z,98766.16
2022-09-27T12:42:34.162Z,98756.71
2022-09-27T12:45:16.429Z,98754.96
2022-09-27T12:48:03.278Z,98757.17
2022-09-27T12:50:44.667Z,98765.23
2022-09-27T12:53:25.239Z,98765.21
2022-09-27T12:56:21.313Z,98766.53
2022-09-27T12:59:22.744Z,98759.70
2022-09-27T13:02:31.398Z,98753.01
2022-09-27T13:05:28.818Z,98750.36
2022-09-27T13:08:18.280Z,98744.90
2022-09-27T13:11:07.611Z,98744.55
2022-09-27T13:13:43.846Z,98747.59
2022-09-27T13:16:17.217Z,98748.96
2022-09-27T13:19:02.021Z,98747.87
2022-09-27T13:22:05.339Z,98742.83
2022-09-27T13:25:02.089Z,98736.42
2022-09-27T13:27:56.032Z,98727.25
2022-09-27T13:30:51.574Z,98719.45
2022-09-27T13:33:49.692Z,98722.67
2022-09-27T13:36:39.776Z,98719.19
2022-09-27T13:39:23.850Z,98712.72
2022-09-27T13:42:32.714Z,98704.18
2022-09-27T13:45:29.833Z,98706.29
2022-09-27T13:48:16.727Z,98699.41
2022-09-27T13:50:57.138Z,98700.47
2022-09-27T13:53:33.569Z,98702.26
2022-09-27T13:56:07.705Z,98702.42
2022-09-27T13:58:56.411Z,98698.64
2022-09-27T14:01:58.534Z,98696.02
2022-09-27T14:04:42.868Z,98698.40
2022-09-27T14:07:20.200Z,98699.27
2022-09-27T14:09:57.245Z,98694.22
2022-09-27T14:12:36.878Z,98689.89
2022-09-27T14:15:23.115Z,98682.56
2022-09-27T14:17:59.263Z,98683.48
2022-09-27T14:20:39.098Z,98681.27
2022-09-27T14:23:22.097Z,98682.42
2022-09-27T14:25:59.082Z,98681.04
2022-09-27T14:28:42.812Z,98681.24
2022-09-27T14:31:26.736Z,98681.36
2022-09-27T14:34:15.315Z,98682.15
2022-09-27T14:37:11.085Z,98683.98
2022-09-27T14:40:00.391Z,98683.48
2022-09-27T14:42:39.707Z,98683.05
2022-09-27T14:45:23.139Z,98687.11
2022-09-27T14:47:57.167Z,98687.83
2022-09-27T14:50:33.285Z,98685.13
2022-09-27T14:53:24.934Z,98678.16
2022-09-27T14:55:59.129Z,98677.27
2022-09-27T14:58:46.585Z,98675.48
2022-09-27T15:01:23.371Z,98673.99
2022-09-27T15:03:57.632Z,98675.75
2022-09-27T15:06:31.353Z,98675.02
2022-09-27T15:09:30.987Z,98679.20
2022-09-27T15:12:08.989Z,98677.08
2022-09-27T15:14:49.435Z,98681.58
2022-09-27T15:17:25.615Z,98680.67
2022-09-27T15:20:05.800Z,98676.94
2022-09-27T15:22:45.514Z,98675.13
2022-09-27T15:25:34.778Z,98677.94
2022-09-27T15:28:20.668Z,98674.38
2022-09-27T15:30:57.539Z,98675.28
2022-09-27T15:33:34.559Z,98672.84
2022-09-27T15:36:11.084Z,98669.27
2022-09-27T15:38:47.699Z,98663.29
2022-09-27T15:41:22.852Z,98663.19
2022-09-27T15:43:56.495Z,98662.60
2022-09-27T15:46:35.183Z,98655.28
2022-09-27T15:49:39.298Z,98646.63
2022-09-27T15:52:43.584Z,98644.77
2022-09-27T15:55:18.182Z,98642.27
2022-09-27T15:57:55.164Z,98640.57
2022-09-27T16:00:29.887Z,98636.83
2022-09-27T16:03:03.376Z,98638.21
2022-09-27T16:05:37.718Z,98637.30
2022-09-27T16:08:13.609Z,98635.64
2022-09-27T16:10:50.299Z,98636.47
2022-09-27T16:13:27.775Z,98637.56
2022-09-27T16:16:05.268Z,98636.57
2022-09-27T16:18:38.513Z,98642.63
2022-09-27T16:21:12.101Z,98647.96
2022-09-27T16:23:45.946Z,98653.16
2022-09-27T16:26:19.976Z,98654.05
2022-09-27T16:28:53.428Z,98656.80
2022-09-27T16:31:29.578Z,98663.34
2022-09-27T16:34:02.483Z,98662.64
2022-09-27T16:36:36.817Z,98662.01
2022-09-27T16:39:14.223Z,98661.77
2022-09-27T16:41:48.518Z,98664.19
2022-09-27T16:44:21.792Z,98669.20
2022-09-27T16:46:55.438Z,98666.36
2022-09-27T16:49:48.049Z,98659.20
2022-09-27T16:52:21.772Z,98654.85
2022-09-27T16:54:54.911Z,98652.34
2022-09-27T16:57:28.876Z,98652.92
2022-09-27T17:00:02.426Z,98657.46
2022-09-27T17:02:36.437Z,98656.73
2022-09-27T17:05:11.198Z,98657.27
2022-09-27T17:07:44.256Z,98657.34
2022-09-27T17:10:20.293Z,98656.86
2022-09-27T17:12:54.145Z,98659.46
2022-09-27T17:15:27.352Z,98659.41
2022-09-27T17:18:00.762Z,98666.15
2022-09-27T17:20:34.057Z,98662.88
2022-09-27T17:23:08.186Z,98663.70
2022-09-27T17:25:42.069Z,98656.98
2022-09-27T17:28:17.819Z,98655.33
2022-09-27T17:30:53.477Z,98654.05
2022-09-27T17:33:28.478Z,98656.63
2022-09-27T17:36:06.513Z,98662.90
2022-09-27T17:38:41.077Z,98660.64
2022-09-27T17:41:16.363Z,98661.34
2022-09-27T17:43:53.794Z,98654.34
2022-09-27T17:46:29.755Z,98654.33
2022-09-27T17:49:22.235Z,98658.77
2022-09-27T17:51:57.345Z,98655.27
2022-09-27T17:54:31.116Z,98657.11
2022-09-27T17:57:05.318Z,98657.46
2022-09-27T17:59:39.811Z,98658.50
2022-09-27T18:02:16.100Z,98656.77
2022-09-27T18:04:52.057Z,98650.68
2022-09-27T18:07:26.503Z,98649.41
2022-09-27T18:10:00.705Z,98649.13
2022-09-27T18:12:35.535Z,98644.08
2022-09-27T18:15:11.618Z,98647.00
2022-09-27T18:17:46.370Z,98644.44
2022-09-27T18:20:21.155Z,98643.96
2022-09-27T18:22:58.015Z,98643.27
2022-09-27T18:25:31.724Z,98646.66
2022-09-27T18:28:05.654Z,98652.41
2022-09-27T18:30:38.785Z,98656.30
2022-09-27T18:33:15.456Z,98651.83
2022-09-27T18:35:48.971Z,98647.60
2022-09-27T18:38:22.193Z,98649.27
2022-09-27T18:40:57.943Z,98648.80
2022-09-27T18:43:35.349Z,98650.83
2022-09-27T18:46:34.443Z,98652.55
2022-09-27T18:49:11.033Z,98656.33
2022-09-27T18:51:47.536Z,98651.44
2022-09-27T18:54:24.091Z,98649.58
2022-09-27T18:56:58.045Z,98653.13
2022-09-27T18:59:31.759Z,98651.29
2022-09-27T19:02:05.278Z,98652.44
2022-09-27T19:04:38.947Z,98649.75
2022-09-27T19:07:12.774Z,98653.07
2022-09-27T19:09:46.097Z,98655.41
2022-09-27T19:12:19.468Z,98653.15
2022-09-27T19:14:53.501Z,98654.59
2022-09-27T19:17:27.077Z,98653.67
2022-09-27T19:20:00.749Z,98648.02
2022-09-27T19:22:34.169Z,98648.64
2022-09-27T19:25:08.895Z,98645.10
2022-09-27T19:27:43.369Z,98639.14
2022-09-27T19:30:18.100Z,98638.45
2022-09-27T19:32:53.081Z,98634.19
2022-09-27T19:35:26.443Z,98634.25
2022-09-27T19:38:00.190Z,98632.08
2022-09-27T19:40:34.646Z,98631.34
2022-09-27T19:43:08.354Z,98628.18
2022-09-27T19:45:42.399Z,98627.42
2022-09-27T19:48:15.548Z,98625.55
2022-09-27T19:51:00.090Z,98620.63
2022-09-27T19:53:35.918Z,98619.04
2022-09-27T19:56:11.561Z,98619.57
2022-09-27T19:58:46.258Z,98615.59
2022-09-27T20:01:21.596Z,98614.13
2022-09-27T20:03:57.089Z,98608.79
2022-09-27T20:06:32.026Z,98604.83
2022-09-27T20:09:05.639Z,98603.16
2022-09-27T20:11:39.859Z,98601.16
2022-09-27T20:14:13.731Z,98594.08
2022-09-27T20:16:47.164Z,98596.47
2022-09-27T20:19:20.325Z,98590.96
2022-09-27T20:21:54.619Z,98592.39
2022-09-27T20:24:27.917Z,98594.48
2022-09-27T20:27:01.057Z,98589.86
2022-09-27T20:29:34.862Z,98593.69
2022-09-27T20:32:26.630Z,98594.30
2022-09-27T20:35:01.797Z,98593.06
2022-09-27T20:37:35.608Z,98594.70
2022-09-27T20:40:10.542Z,98605.89
2022-09-27T20:42:43.617Z,98607.23
2022-09-27T20:45:17.942Z,98604.51
2022-09-27T20:47:51.402Z,98603.99
2022-09-27T20:50:24.749Z,98601.88
2022-09-27T20:52:58.073Z,98602.02
2022-09-27T20:55:31.702Z,98611.74
2022-09-27T20:58:05.240Z,98615.23
2022-09-27T21:00:40.473Z,98613.29
2022-09-27T21:03:14.841Z,98619.96
2022-09-27T21:05:56.537Z,98625.39
2022-09-27T21:08:33.433Z,98619.16
2022-09-27T21:11:12.654Z,98608.08
2022-09-27T21:13:47.433Z,98607.27
2022-09-27T21:16:22.063Z,98613.08
2022-09-27T21:18:56.707Z,98615.53
2022-09-27T21:21:30.365Z,98614.60
2022-09-27T21:24:05.196Z,98610.09
2022-09-27T21:26:38.764Z,98608.20
2022-09-27T21:29:13.885Z,98603.73
2022-09-27T21:31:47.627Z,98602.77
2022-09-27T21:34:21.111Z,98600.05
2022-09-27T21:36:59.907Z,98596.20
2022-09-27T21:39:33.512Z,98586.70
2022-09-27T21:42:07.425Z,98583.80
2022-09-27T21:44:41.166Z,98578.52
2022-09-27T21:47:17.972Z,98577.39
2022-09-27T21:49:51.693Z,98578.69
2022-09-27T21:52:26.122Z,98570.66
2022-09-27T21:54:59.465Z,98570.77
2022-09-27T21:57:35.529Z,98564.73
2022-09-27T22:00:11.672Z,98563.95
2022-09-27T22:02:45.484Z,98555.63
2022-09-27T22:05:18.942Z,98553.41
2022-09-27T22:07:52.628Z,98552.84
2022-09-27T22:10:26.533Z,98548.56
2022-09-27T22:13:00.375Z,98543.91
2022-09-27T22:15:35.818Z,98543.56
2022-09-27T22:18:09.420Z,98541.70
2022-09-27T22:20:42.615Z,98539.35
2022-09-27T22:23:16.237Z,98538.27
2022-09-27T22:25:49.881Z,98537.39
2022-09-27T22:28:23.352Z,98535.95
2022-09-27T22:30:57.074Z,98533.89
2022-09-27T22:33:31.200Z,98531.63
2022-09-27T22:36:08.853Z,98532.50
2022-09-27T22:38:42.381Z,98528.15
2022-09-27T22:41:18.940Z,98531.48
2022-09-27T22:43:53.750Z,98525.73
2022-09-27T22:46:30.051Z,98522.23
2022-09-27T22:49:03.324Z,98518.04
2022-09-27T22:51:36.949Z,98516.95
2022-09-27T22:54:11.246Z,98513.02
2022-09-27T22:56:44.436Z,98514.46
2022-09-27T22:59:18.245Z,98514.72
2022-09-27T23:01:52.095Z,98511.23
2022-09-27T23:04:25.710Z,98506.91
2022-09-27T23:06:59.591Z,98506.79
2022-09-27T23:09:32.962Z,98506.61
2022-09-27T23:12:07.657Z,98509.15
2022-09-27T23:14:42.698Z,98509.02
2022-09-27T23:17:20.639Z,98511.54
2022-09-27T23:19:54.429Z,98508.16
2022-09-27T23:22:33.487Z,98506.64
2022-09-27T23:25:07.241Z,98502.73
2022-09-27T23:27:45.445Z,98502.27
2022-09-27T23:30:20.455Z,98500.52
2022-09-27T23:32:57.587Z,98502.71
2022-09-27T23:35:31.752Z,98502.45
2022-09-27T23:38:04.616Z,98496.41
2022-09-27T23:40:39.398Z,98497.94
2022-09-27T23:43:13.108Z,98499.08
2022-09-27T23:45:46.368Z,98494.43
2022-09-27T23:48:19.657Z,98498.42
2022-09-27T23:50:53.913Z,98500.09
2022-09-27T23:53:27.667Z,98502.23
2022-09-27T23:56:05.765Z,98499.52
2022-09-27T23:58:40.322Z,98500.61
